Portada
METAR-TAF:

METAR-TAF

Aeroports :

Macas, Equador

latitud: 02-17-57-S, longitud: 078-07-15-W, altitud: 1052 m

Observació

L'informe es va fer fa 5 minuts, a les 21:00 UTC
Vent 4 kt del Sud/Sud-Oest
Temperatura 23°C
Humitat 61%
Pressió 1019 hPa
Visibilitat 10 km o més
Escasses núvols a una alçada de 3000 ft
Cel ennuvolat a una alçada de 11000 ft

METAR: SEMC 092100Z 21004KT 9999 FEW030 BKN110 23/15 Q1019 RMK A3010

Hora: 16:05 (21:05 UTC)


TAF: manca

Observacions i pronòstics meteorològics de més de 4000 aeroports (METAR i TAF).

Les estacions disponibles són els punts grocs i vermells al mapa.

Posi el ratolí al punt desitjat per veure el nom de l'estació.

Feu clic per veure les observacions i els pronòstics meteorològics.

Per canviar el mapa: feu clic els botons verds amb una creu de color negre per apropar; al botó verd amb un guió per allunyar la imatge; o en les fletxes verdes per a mapes adjacents.


METAR-TAF: